Time;durP1;ratioP1;P1;durP2;ratioP2;P2;SDS_P1;SDS_P2;PMS_P1;PMS_P2;Temp;Humidity;BMP_temperature;BMP_pressure;BME280_temperature;BME280_humidity;BME280_pressure;Samples;Min_cycle;Max_cycle;Signal;HPM_P1;HPM_P2
2022/01/21 00:01:09;;;;;;;10.60;2.20;;;1.90;99.90;;;;;;4963933;28;20054;-89
2022/01/21 00:03:35;;;;;;;12.73;2.17;;;1.90;99.90;;;;;;4975352;28;20049;-91
2022/01/21 00:06:02;;;;;;;12.07;2.17;;;1.90;99.90;;;;;;4976557;28;20089;-91
2022/01/21 00:08:28;;;;;;;10.75;2.67;;;1.90;99.90;;;;;;4959492;28;20052;-91
2022/01/21 00:10:54;;;;;;;15.60;2.58;;;2.00;99.90;;;;;;4967033;28;20042;-90
2022/01/21 00:13:25;;;;;;;11.20;2.38;;;2.00;99.90;;;;;;4960820;28;20399;-90
2022/01/21 00:15:51;;;;;;;12.65;2.60;;;2.10;99.90;;;;;;4959324;28;20061;-93
2022/01/21 00:18:18;;;;;;;14.55;2.33;;;2.10;99.90;;;;;;4969383;28;20046;-92
2022/01/21 00:31:41;;;;;;;15.55;2.33;;;2.30;99.90;;;;;;4975057;28;20483;-91
2022/01/21 00:34:06;;;;;;;16.27;2.83;;;2.30;99.90;;;;;;4960304;28;20092;-92
2022/01/21 00:36:33;;;;;;;17.38;3.08;;;2.30;99.90;;;;;;4975709;28;20125;-92
2022/01/21 00:38:58;;;;;;;15.43;2.95;;;2.40;99.90;;;;;;4960866;28;20453;-91
2022/01/21 00:41:28;;;;;;;12.45;2.60;;;2.40;99.90;;;;;;4960593;28;20034;-92
2022/01/21 00:43:54;;;;;;;13.63;2.45;;;2.40;99.90;;;;;;4976187;28;20061;-91
2022/01/21 00:46:20;;;;;;;11.55;2.45;;;2.40;99.90;;;;;;4991599;28;20043;-92
2022/01/21 00:48:46;;;;;;;15.50;3.03;;;2.40;99.90;;;;;;4973325;28;20042;-90
2022/01/21 00:51:11;;;;;;;16.85;2.28;;;2.40;99.90;;;;;;4967744;28;20462;-92
2022/01/21 00:53:37;;;;;;;19.02;2.78;;;2.40;99.90;;;;;;4975452;28;20134;-92
2022/01/21 00:56:03;;;;;;;11.50;2.50;;;2.40;99.90;;;;;;4960339;28;20078;-91
2022/01/21 00:58:33;;;;;;;18.27;2.90;;;2.40;99.90;;;;;;4975743;28;20054;-93
2022/01/21 01:00:58;;;;;;;15.25;2.15;;;2.40;99.90;;;;;;4960699;28;20048;-92
2022/01/21 01:03:24;;;;;;;13.27;2.17;;;2.40;99.90;;;;;;4975816;28;20038;-93
2022/01/21 01:05:51;;;;;;;14.02;2.53;;;2.30;99.90;;;;;;4959524;28;20433;-92
2022/01/21 01:08:18;;;;;;;13.65;2.20;;;2.30;99.90;;;;;;4970750;28;20384;-93
2022/01/21 01:10:59;;;;;;;12.27;2.15;;;2.30;99.90;;;;;;4959027;28;20161;-92
2022/01/21 01:21:47;;;;;;;13.82;2.00;;;2.30;99.90;;;;;;4931915;29;20079;-93
2022/01/21 01:29:41;;;;;;;7.75;1.85;;;2.30;99.90;;;;;;4915848;29;20079;-91
2022/01/21 01:32:07;;;;;;;16.30;2.17;;;2.20;99.90;;;;;;4918137;29;20497;-91
2022/01/21 01:34:33;;;;;;;9.73;1.65;;;2.30;99.90;;;;;;4915762;29;20051;-92
2022/01/21 01:37:04;;;;;;;10.88;2.15;;;2.30;99.90;;;;;;4916576;29;20130;-91
2022/01/21 01:39:37;;;;;;;12.40;1.58;;;2.30;99.90;;;;;;4916321;29;20080;-93
2022/01/21 01:50:05;;;;;;;8.93;2.03;;;2.50;99.90;;;;;;4929352;29;20082;-92
2022/01/21 01:52:32;;;;;;;8.80;2.05;;;2.50;99.90;;;;;;4934855;29;20067;-92
2022/01/21 01:54:58;;;;;;;11.18;1.65;;;2.50;99.90;;;;;;4945573;28;20138;-91
2022/01/21 01:57:26;;;;;;;11.20;2.05;;;2.50;99.90;;;;;;4957643;28;20137;-91
2022/01/21 01:59:52;;;;;;;14.18;1.98;;;2.50;99.90;;;;;;4959992;28;20038;-92
2022/01/21 02:02:19;;;;;;;13.15;2.22;;;2.50;99.90;;;;;;4965089;28;20041;-91
2022/01/21 02:04:47;;;;;;;13.23;2.08;;;2.50;99.90;;;;;;4973353;28;20385;-92
2022/01/21 02:07:13;;;;;;;10.90;1.60;;;2.50;99.90;;;;;;4974339;28;20380;-89
2022/01/21 02:09:39;;;;;;;14.98;2.03;;;2.60;99.90;;;;;;4961786;28;20394;-92
2022/01/21 02:12:05;;;;;;;8.75;1.63;;;2.60;99.90;;;;;;4973782;28;20046;-91
2022/01/21 02:14:37;;;;;;;11.57;1.80;;;2.60;99.90;;;;;;4956366;28;20103;-93
2022/01/21 02:17:16;;;;;;;8.25;1.65;;;2.70;99.90;;;;;;4974223;28;20049;-92
2022/01/21 02:22:32;;;;;;;9.40;1.73;;;2.80;99.90;;;;;;4978971;28;20042;-91
2022/01/21 02:25:00;;;;;;;9.75;2.08;;;2.60;99.90;;;;;;4959025;28;20567;-92
2022/01/21 02:27:27;;;;;;;11.68;1.52;;;2.50;99.90;;;;;;4973316;28;20058;-92
2022/01/21 02:30:01;;;;;;;10.20;1.58;;;2.60;99.90;;;;;;4973368;28;20042;-90
2022/01/21 02:32:27;;;;;;;7.22;1.58;;;2.60;99.90;;;;;;4960781;28;20443;-91
2022/01/21 02:34:52;;;;;;;7.20;1.33;;;2.50;99.90;;;;;;4973635;28;20048;-92
2022/01/21 02:37:21;;;;;;;8.32;1.48;;;2.50;99.90;;;;;;4973276;28;20050;-92
2022/01/21 02:39:47;;;;;;;9.40;1.25;;;2.60;99.90;;;;;;4970201;28;20053;-92
2022/01/21 02:42:13;;;;;;;10.15;1.25;;;2.60;99.90;;;;;;4957042;28;20236;-92
2022/01/21 02:44:39;;;;;;;9.90;1.48;;;2.70;99.90;;;;;;4956690;28;20046;-91
2022/01/21 02:47:06;;;;;;;10.07;1.50;;;2.70;99.90;;;;;;4957809;28;20077;-92
2022/01/21 02:49:33;;;;;;;9.45;1.35;;;2.70;99.90;;;;;;4973273;28;20294;-92
2022/01/21 02:52:01;;;;;;;11.20;1.83;;;2.70;99.90;;;;;;4974009;28;20051;-93
2022/01/21 02:54:32;;;;;;;8.13;1.23;;;2.70;99.90;;;;;;4964466;28;20038;-88
2022/01/21 02:56:58;;;;;;;9.82;2.30;;;2.70;99.90;;;;;;4959477;28;20132;-91
2022/01/21 02:59:39;;;;;;;8.77;1.40;;;2.60;99.90;;;;;;4980054;28;20054;-93
2022/01/21 03:02:05;;;;;;;9.38;1.38;;;2.60;99.90;;;;;;4957810;28;20050;-92
2022/01/21 03:04:52;;;;;;;7.25;1.30;;;2.50;99.90;;;;;;4957209;28;20185;-92
2022/01/21 03:07:18;;;;;;;8.00;1.60;;;2.40;99.90;;;;;;4957289;28;20035;-91
2022/01/21 03:09:44;;;;;;;10.27;1.90;;;2.40;99.90;;;;;;4962449;28;20046;-91
2022/01/21 03:12:10;;;;;;;7.15;1.20;;;2.30;99.90;;;;;;4960208;28;20049;-93
2022/01/21 03:14:41;;;;;;;12.15;1.30;;;2.30;99.90;;;;;;4956268;28;20062;-93
2022/01/21 03:17:07;;;;;;;11.50;1.70;;;2.30;99.90;;;;;;4960496;28;20049;-92
2022/01/21 03:19:33;;;;;;;9.35;1.98;;;2.30;99.90;;;;;;4969630;28;20046;-92
2022/01/21 03:21:58;;;;;;;10.27;1.65;;;2.40;99.90;;;;;;4953479;28;20545;-91
2022/01/21 03:24:25;;;;;;;10.52;1.50;;;2.40;99.90;;;;;;4956323;28;20471;-93
2022/01/21 03:26:50;;;;;;;9.70;1.33;;;2.40;99.90;;;;;;4972742;28;20287;-91
2022/01/21 03:29:25;;;;;;;8.95;1.63;;;2.40;99.90;;;;;;4956532;28;20045;-91
2022/01/21 03:31:50;;;;;;;12.70;2.13;;;2.40;99.90;;;;;;4985547;28;20056;-92
2022/01/21 03:34:16;;;;;;;9.50;1.70;;;2.40;99.90;;;;;;4965864;28;20476;-91
2022/01/21 03:36:42;;;;;;;9.38;1.58;;;2.40;99.90;;;;;;4959951;28;20105;-92
2022/01/21 03:39:08;;;;;;;10.45;1.63;;;2.40;99.90;;;;;;4956585;28;20133;-91
2022/01/21 03:41:34;;;;;;;9.55;1.20;;;2.40;99.90;;;;;;4955999;28;20491;-91
2022/01/21 03:44:11;;;;;;;5.03;1.20;;;2.50;99.90;;;;;;4976129;28;20053;-90
2022/01/21 03:46:36;;;;;;;8.13;1.35;;;2.40;99.90;;;;;;4947840;28;20069;-92
2022/01/21 03:49:04;;;;;;;8.35;1.20;;;2.30;99.90;;;;;;4972660;28;20046;-91
2022/01/21 03:51:30;;;;;;;8.18;1.10;;;2.20;99.90;;;;;;4956284;28;20057;-91
2022/01/21 03:53:56;;;;;;;11.52;1.40;;;2.20;99.90;;;;;;4956456;28;20092;-89
2022/01/21 03:56:22;;;;;;;5.90;1.10;;;2.20;99.90;;;;;;4962581;28;20046;-92
2022/01/21 03:58:59;;;;;;;6.05;1.00;;;2.10;99.90;;;;;;4955918;28;20042;-91
2022/01/21 04:01:25;;;;;;;7.68;1.10;;;2.10;99.90;;;;;;4949050;28;20066;-92
2022/01/21 04:03:51;;;;;;;6.85;1.15;;;2.10;99.90;;;;;;4970700;28;20529;-92
2022/01/21 04:06:17;;;;;;;8.60;1.42;;;2.10;99.90;;;;;;4956983;28;20042;-92
2022/01/21 04:08:43;;;;;;;8.90;1.58;;;2.10;99.90;;;;;;4971596;28;20217;-91
2022/01/21 04:11:08;;;;;;;7.03;1.38;;;2.10;99.90;;;;;;4979748;28;20558;-91
2022/01/21 04:13:40;;;;;;;8.60;1.98;;;2.10;99.90;;;;;;4977849;28;20089;-91
2022/01/21 04:16:05;;;;;;;9.10;1.60;;;2.10;99.90;;;;;;4975701;28;20046;-91
2022/01/21 04:18:33;;;;;;;7.15;1.33;;;2.10;99.90;;;;;;4954397;28;20114;-91
2022/01/21 04:20:58;;;;;;;9.68;1.45;;;2.00;99.90;;;;;;4997280;28;20038;-92
2022/01/21 04:23:25;;;;;;;7.97;1.73;;;2.00;99.90;;;;;;4970844;28;20038;-91
2022/01/21 04:25:52;;;;;;;7.40;1.25;;;2.00;99.90;;;;;;4972519;28;20540;-91
2022/01/21 04:28:27;;;;;;;10.57;1.73;;;1.90;99.90;;;;;;4954173;28;20069;-90
2022/01/21 04:30:52;;;;;;;8.93;1.88;;;1.90;99.90;;;;;;4956010;28;20089;-91
2022/01/21 04:33:18;;;;;;;10.77;1.95;;;1.90;99.90;;;;;;4955668;28;20050;-89
2022/01/21 04:35:43;;;;;;;8.05;1.58;;;1.90;99.90;;;;;;4955315;28;20034;-91
2022/01/21 04:38:12;;;;;;;9.18;1.67;;;1.80;99.90;;;;;;4955688;28;20126;-89
2022/01/21 04:40:59;;;;;;;9.77;1.67;;;1.80;99.90;;;;;;4968908;28;20184;-91
2022/01/21 04:48:51;;;;;;;13.57;1.92;;;1.80;99.90;;;;;;4975410;28;20050;-91
2022/01/21 04:51:26;;;;;;;13.30;2.17;;;1.80;99.90;;;;;;4959291;28;20121;-91
2022/01/21 04:53:51;;;;;;;11.15;1.83;;;1.80;99.90;;;;;;4959106;28;20085;-90
2022/01/21 04:56:17;;;;;;;13.57;1.80;;;1.70;99.90;;;;;;4967066;28;20101;-90
2022/01/21 04:58:44;;;;;;;12.65;2.05;;;1.70;99.90;;;;;;4958072;28;20495;-90
2022/01/21 05:01:11;;;;;;;9.25;1.65;;;1.70;99.90;;;;;;4959177;28;20130;-90
2022/01/21 05:03:39;;;;;;;10.80;2.03;;;1.70;99.90;;;;;;4965697;28;20411;-91
2022/01/21 05:06:05;;;;;;;9.68;1.60;;;1.70;99.90;;;;;;4961448;28;20553;-91
2022/01/21 05:08:52;;;;;;;11.07;1.88;;;1.80;99.90;;;;;;4958246;28;20089;-91
2022/01/21 05:11:18;;;;;;;10.57;1.95;;;1.80;99.90;;;;;;4959347;28;20074;-90
2022/01/21 05:14:09;;;;;;;10.90;1.73;;;1.80;99.90;;;;;;4966766;28;20074;-90
2022/01/21 05:16:38;;;;;;;10.40;2.17;;;1.80;99.90;;;;;;4957955;28;20046;-89
2022/01/21 05:19:12;;;;;;;13.02;1.70;;;1.80;99.90;;;;;;4974866;28;20112;-91
2022/01/21 05:21:38;;;;;;;6.47;1.70;;;1.80;99.90;;;;;;4957866;28;20061;-90
2022/01/21 05:24:05;;;;;;;13.23;2.38;;;1.80;99.90;;;;;;4974939;28;20042;-91
2022/01/21 05:26:36;;;;;;;11.90;1.73;;;1.80;99.90;;;;;;4990854;28;20137;-90
2022/01/21 05:29:13;;;;;;;15.40;2.65;;;1.80;99.90;;;;;;4975991;28;20038;-90
2022/01/21 05:31:38;;;;;;;19.80;1.92;;;1.90;99.90;;;;;;4965869;28;20446;-89
2022/01/21 05:34:04;;;;;;;12.57;1.63;;;1.90;99.90;;;;;;4974672;28;20081;-90
2022/01/21 05:36:31;;;;;;;10.07;1.65;;;1.90;99.90;;;;;;4990163;28;20129;-90
2022/01/21 05:39:00;;;;;;;9.55;1.70;;;1.80;99.90;;;;;;4965339;28;20042;-90
2022/01/21 05:41:25;;;;;;;14.48;2.75;;;1.90;99.90;;;;;;4990178;28;20046;-91
2022/01/21 05:44:00;;;;;;;10.40;1.88;;;1.90;99.90;;;;;;4957660;28;20392;-90
2022/01/21 05:46:42;;;;;;;12.68;1.88;;;2.00;99.90;;;;;;4989435;28;20046;-88
2022/01/21 05:49:08;;;;;;;12.00;1.73;;;2.00;99.90;;;;;;4972469;28;20046;-90
2022/01/21 05:51:34;;;;;;;13.95;2.00;;;2.00;99.90;;;;;;4973110;28;20046;-88
2022/01/21 05:54:00;;;;;;;15.02;2.15;;;2.00;99.90;;;;;;4957595;28;20042;-90
2022/01/21 05:56:26;;;;;;;10.40;1.77;;;2.00;99.90;;;;;;4988919;28;20045;-91
2022/01/21 05:59:00;;;;;;;15.32;2.92;;;2.00;99.90;;;;;;4974286;28;20046;-92
2022/01/21 06:01:26;;;;;;;12.30;1.85;;;2.00;99.90;;;;;;4958735;28;20046;-88
2022/01/21 06:03:52;;;;;;;7.38;1.65;;;2.00;99.90;;;;;;4955143;28;20089;-89
2022/01/21 06:06:17;;;;;;;13.85;1.73;;;2.00;99.90;;;;;;4948945;28;20066;-88
2022/01/21 06:08:43;;;;;;;12.35;1.70;;;2.10;99.90;;;;;;4956966;28;20092;-89
2022/01/21 06:11:09;;;;;;;12.52;1.65;;;2.10;99.90;;;;;;4957935;28;20050;-90
2022/01/21 06:13:38;;;;;;;13.35;2.42;;;2.10;99.90;;;;;;4989520;28;20605;-91
2022/01/21 06:16:04;;;;;;;11.27;1.80;;;2.10;99.90;;;;;;4973893;28;20100;-89
2022/01/21 06:18:30;;;;;;;11.45;2.00;;;2.10;99.90;;;;;;4971049;28;20487;-89
2022/01/21 06:20:56;;;;;;;9.63;1.20;;;2.10;99.90;;;;;;4958249;28;20042;-89
2022/01/21 06:23:21;;;;;;;9.70;1.85;;;2.10;99.90;;;;;;4974349;28;20121;-90
2022/01/21 06:25:47;;;;;;;9.48;1.80;;;2.20;99.90;;;;;;4972682;28;20037;-93
2022/01/21 06:28:28;;;;;;;12.48;1.83;;;2.20;99.90;;;;;;4958912;28;20049;-91
2022/01/21 06:30:53;;;;;;;9.65;1.40;;;2.20;99.90;;;;;;4958378;28;20147;-92
2022/01/21 06:33:22;;;;;;;10.25;2.15;;;2.20;99.90;;;;;;4958671;28;20105;-92
2022/01/21 06:35:49;;;;;;;12.07;2.03;;;2.20;99.90;;;;;;4975184;28;20054;-92
2022/01/21 06:38:14;;;;;;;13.35;3.35;;;2.20;99.90;;;;;;4993586;28;20030;-93
2022/01/21 06:40:40;;;;;;;9.43;1.73;;;2.30;99.90;;;;;;4977912;28;20038;-93
2022/01/21 06:43:07;;;;;;;9.88;1.92;;;2.30;99.90;;;;;;4998560;28;20033;-91
2022/01/21 06:45:33;;;;;;;9.27;1.75;;;2.30;99.90;;;;;;4975631;28;20041;-91
2022/01/21 06:47:58;;;;;;;10.85;2.38;;;2.20;99.90;;;;;;4964242;28;20046;-90
2022/01/21 06:50:26;;;;;;;10.35;1.67;;;2.20;99.90;;;;;;4962538;28;20038;-89
2022/01/21 06:52:51;;;;;;;8.43;1.40;;;2.20;99.90;;;;;;4958669;28;20057;-89
2022/01/21 06:55:17;;;;;;;8.27;1.67;;;2.20;99.90;;;;;;4955885;28;20411;-92
2022/01/21 06:57:43;;;;;;;10.65;1.60;;;2.10;99.90;;;;;;4956453;28;20648;-93
2022/01/21 07:00:18;;;;;;;8.05;1.42;;;2.10;99.90;;;;;;4966350;28;20038;-93
2022/01/21 07:02:47;;;;;;;8.48;1.60;;;2.10;99.90;;;;;;4949959;28;20495;-92
2022/01/21 07:05:13;;;;;;;10.15;1.50;;;2.00;99.90;;;;;;4959230;28;20243;-92
2022/01/21 07:07:39;;;;;;;10.20;2.08;;;1.90;99.90;;;;;;4957830;28;20038;-94
2022/01/21 07:10:06;;;;;;;9.10;1.85;;;1.80;99.90;;;;;;4974635;28;20035;-93
2022/01/21 07:12:35;;;;;;;10.90;1.85;;;1.80;99.90;;;;;;4958542;28;20129;-93
2022/01/21 07:15:01;;;;;;;10.15;1.77;;;1.70;99.90;;;;;;4974210;28;20407;-93
2022/01/21 07:17:27;;;;;;;8.23;1.42;;;1.60;99.90;;;;;;4974309;28;20050;-95
2022/01/21 07:19:53;;;;;;;13.52;2.35;;;1.60;99.90;;;;;;4963095;28;20039;-94
2022/01/21 07:22:18;;;;;;;11.60;1.63;;;1.50;99.90;;;;;;4958694;28;20046;-93
2022/01/21 07:24:44;;;;;;;9.50;1.50;;;1.50;99.90;;;;;;4972823;28;20053;-93
2022/01/21 07:27:10;;;;;;;10.02;2.08;;;1.40;99.90;;;;;;4949538;28;20035;-93
2022/01/21 07:29:42;;;;;;;9.82;1.55;;;1.40;99.90;;;;;;4953554;28;20120;-93
2022/01/21 07:32:08;;;;;;;9.88;1.80;;;1.40;99.90;;;;;;4958023;28;20046;-93
2022/01/21 07:34:34;;;;;;;11.63;2.00;;;1.40;99.90;;;;;;4957546;28;20039;-92
2022/01/21 07:37:00;;;;;;;12.90;2.10;;;1.40;99.90;;;;;;4973734;28;20096;-93
2022/01/21 07:39:26;;;;;;;11.55;1.95;;;1.40;99.90;;;;;;4955868;28;20043;-92
2022/01/21 07:41:52;;;;;;;9.82;2.05;;;1.40;99.90;;;;;;4975656;28;20046;-94
2022/01/21 07:44:33;;;;;;;11.07;2.05;;;1.50;99.90;;;;;;4963391;28;20053;-95
2022/01/21 07:46:59;;;;;;;11.85;2.45;;;1.50;99.90;;;;;;4958210;28;20042;-93
2022/01/21 07:49:25;;;;;;;14.05;2.42;;;1.60;99.90;;;;;;4961909;28;20042;-93
2022/01/21 07:51:50;;;;;;;10.48;2.38;;;1.60;99.90;;;;;;4962047;28;20046;-95
2022/01/21 07:54:16;;;;;;;9.68;2.08;;;1.70;99.90;;;;;;4956540;28;20200;-95
2022/01/21 07:56:42;;;;;;;11.35;1.95;;;1.80;99.90;;;;;;4958287;28;20042;-94
2022/01/21 07:59:17;;;;;;;11.88;2.10;;;1.90;99.90;;;;;;4960671;28;20081;-96
2022/01/21 08:01:43;;;;;;;11.10;1.80;;;1.90;99.90;;;;;;4958647;28;20050;-94
2022/01/21 08:04:09;;;;;;;13.35;1.80;;;2.00;99.90;;;;;;4970698;28;20042;-94
2022/01/21 08:06:36;;;;;;;12.77;1.90;;;2.10;99.90;;;;;;4961285;28;20076;-94
2022/01/21 08:09:03;;;;;;;8.20;2.05;;;2.10;99.90;;;;;;4962124;28;20046;-96
2022/01/21 08:11:29;;;;;;;10.10;2.65;;;2.20;99.90;;;;;;4974013;28;20415;-95
2022/01/21 08:14:04;;;;;;;10.88;2.28;;;2.20;99.90;;;;;;4966192;28;20090;-92
2022/01/21 08:16:30;;;;;;;8.70;2.22;;;2.20;99.90;;;;;;4957203;28;20061;-94
2022/01/21 08:18:56;;;;;;;12.32;2.42;;;2.40;99.90;;;;;;4988315;28;20043;-95
2022/01/21 08:21:22;;;;;;;10.63;2.10;;;2.40;99.90;;;;;;5016017;28;20018;-96
2022/01/21 08:23:50;;;;;;;8.57;1.88;;;2.50;99.90;;;;;;5003563;28;20057;-96
2022/01/21 09:01:27;;;;;;;12.02;2.38;;;2.70;99.90;;;;;;5024294;28;20038;-95
2022/01/21 09:03:55;;;;;;;10.32;2.97;;;2.80;99.90;;;;;;5001744;28;20030;-95
2022/01/21 09:06:23;;;;;;;13.50;2.40;;;2.80;99.90;;;;;;5157613;23;20098;-93
2022/01/21 09:08:48;;;;;;;10.00;2.30;;;2.90;99.90;;;;;;5074388;23;20074;-95
2022/01/21 09:11:14;;;;;;;14.50;2.78;;;2.90;99.90;;;;;;4959381;28;20407;-95
2022/01/21 09:13:53;;;;;;;12.70;2.50;;;3.00;99.90;;;;;;4983171;28;20037;-95
2022/01/21 09:16:19;;;;;;;14.15;2.78;;;3.10;99.90;;;;;;4981046;28;20092;-95
2022/01/21 09:18:51;;;;;;;12.95;2.60;;;3.10;99.90;;;;;;4953288;28;20073;-94
2022/01/21 09:21:25;;;;;;;13.23;2.58;;;3.10;99.90;;;;;;5213494;23;20058;-96
2022/01/21 09:23:53;;;;;;;14.13;3.22;;;3.20;99.90;;;;;;4968910;28;20051;-96
2022/01/21 09:26:21;;;;;;;15.05;2.75;;;3.20;99.90;;;;;;5050620;23;20068;-96
2022/01/21 09:29:38;;;;;;;9.05;1.98;;;3.30;99.90;;;;;;5003966;28;20089;-96
2022/01/21 09:32:06;;;;;;;11.63;2.70;;;3.40;99.90;;;;;;5013083;28;20141;-96
2022/01/21 09:34:33;;;;;;;12.60;2.97;;;3.50;99.90;;;;;;5013237;28;20077;-96
2022/01/21 10:35:02;;;;;;;11.15;2.22;;;5.00;99.90;;;;;;5029738;28;20045;-96
2022/01/21 10:37:36;;;;;;;12.10;2.20;;;5.00;99.90;;;;;;4996257;28;20049;-96
2022/01/21 10:40:11;;;;;;;11.75;2.80;;;5.00;99.90;;;;;;4997981;28;20061;-96
2022/01/21 10:42:37;;;;;;;9.65;2.25;;;5.10;99.90;;;;;;5000188;28;20037;-96
2022/01/21 10:45:12;;;;;;;9.55;2.80;;;5.10;99.90;;;;;;4998648;28;20033;-95
2022/01/21 10:47:48;;;;;;;12.60;2.67;;;5.10;99.90;;;;;;5004352;28;20025;-94
2022/01/21 10:50:19;;;;;;;15.77;3.53;;;5.10;99.90;;;;;;4997936;28;20048;-95
2022/01/21 10:52:49;;;;;;;;;;;5.10;99.90;;;;;;4999339;28;20056;-94
2022/01/21 10:55:33;;;;;;;13.70;2.88;;;5.00;99.90;;;;;;5007489;28;19916;-96
2022/01/21 10:58:13;;;;;;;10.15;3.13;;;5.10;99.90;;;;;;4994103;28;20033;-95
2022/01/21 11:01:10;;;;;;;16.77;3.38;;;5.20;99.90;;;;;;4998216;28;20099;-92
2022/01/21 11:03:39;;;;;;;15.80;3.42;;;5.30;99.90;;;;;;4998894;28;20045;-94
2022/01/21 11:06:10;;;;;;;16.52;4.43;;;5.40;99.90;;;;;;4997199;28;20485;-94
2022/01/21 11:08:36;;;;;;;14.45;3.15;;;5.50;99.90;;;;;;4995726;28;20128;-93
2022/01/21 11:11:02;;;;;;;15.27;3.55;;;5.50;99.90;;;;;;5000862;28;20103;-95
2022/01/21 11:13:30;;;;;;;16.80;5.68;;;5.60;99.90;;;;;;4998774;28;20049;-92
2022/01/21 11:16:06;;;;;;;13.13;3.28;;;5.70;99.90;;;;;;4995240;28;20036;-94
2022/01/21 11:18:33;;;;;;;15.63;3.47;;;5.70;99.90;;;;;;5000723;22;1043174;-92
2022/01/21 11:21:06;;;;;;;16.58;4.00;;;5.70;99.90;;;;;;5011859;28;20057;-91
2022/01/21 11:23:33;;;;;;;14.70;4.78;;;5.80;99.90;;;;;;5012475;28;20041;-91
2022/01/21 11:26:02;;;;;;;18.08;5.78;;;5.80;99.90;;;;;;5013862;28;20049;-91
2022/01/21 11:28:38;;;;;;;17.20;5.32;;;5.80;99.90;;;;;;5013650;28;20041;-92
2022/01/21 11:31:04;;;;;;;23.00;5.47;;;5.80;99.90;;;;;;5014877;28;20049;-91
2022/01/21 11:33:29;;;;;;;13.75;4.68;;;5.80;99.90;;;;;;5013221;28;20037;-92
2022/01/21 11:35:55;;;;;;;17.20;5.18;;;5.80;99.90;;;;;;4997341;28;20099;-92
2022/01/21 11:38:24;;;;;;;19.80;4.57;;;5.80;99.90;;;;;;5013129;28;20513;-92
2022/01/21 11:40:51;;;;;;;16.17;4.55;;;5.80;99.90;;;;;;4996179;28;20442;-93
2022/01/21 11:43:18;;;;;;;14.20;4.38;;;5.80;99.90;;;;;;5013567;28;20132;-92
2022/01/21 11:46:48;;;;;;;18.85;4.10;;;5.80;99.90;;;;;;5011253;28;20041;-94
2022/01/21 11:48:55;;;;;;;18.98;3.95;;;5.80;99.90;;;;;;4998712;28;20045;-91
2022/01/21 11:51:22;;;;;;;;;;;5.90;99.90;;;;;;5011328;28;20136;-91
2022/01/21 11:53:50;;;;;;;17.23;4.20;;;5.90;99.90;;;;;;5028368;28;19941;-90
2022/01/21 11:56:46;;;;;;;16.13;4.20;;;6.00;99.90;;;;;;4996673;28;20402;-90
2022/01/21 12:01:59;;;;;;;15.93;3.67;;;6.20;99.90;;;;;;5008868;28;20042;-90
2022/01/21 12:04:31;;;;;;;15.15;3.80;;;6.30;99.90;;;;;;4993940;28;20514;-89
2022/01/21 12:06:58;;;;;;;17.23;4.25;;;6.40;99.90;;;;;;5011521;28;20045;-91
2022/01/21 12:09:58;;;;;;;15.32;3.85;;;6.50;99.90;;;;;;5011656;28;20555;-90
2022/01/21 12:12:45;;;;;;;14.60;3.55;;;6.60;99.90;;;;;;5012135;28;20083;-88
2022/01/21 12:15:25;;;;;;;11.40;2.72;;;6.60;99.90;;;;;;4995769;28;20379;-90
2022/01/21 12:18:17;;;;;;;10.88;3.00;;;6.70;99.90;;;;;;5027917;28;20433;-89
2022/01/21 12:20:44;;;;;;;13.40;2.42;;;6.80;99.90;;;;;;5009252;28;20128;-89
2022/01/21 12:23:21;;;;;;;11.60;2.80;;;6.80;99.90;;;;;;5031282;28;20041;-91
2022/01/21 12:26:09;;;;;;;12.27;3.53;;;6.90;99.90;;;;;;5027714;28;20049;-89
2022/01/21 12:28:41;;;;;;;15.85;2.92;;;6.90;99.90;;;;;;5010727;28;20041;-90
2022/01/21 12:31:09;;;;;;;10.98;3.05;;;6.90;99.90;;;;;;5028205;28;20037;-91
2022/01/21 12:33:59;;;;;;;13.50;3.78;;;6.90;99.90;;;;;;5011384;28;20073;-90
2022/01/21 12:36:29;;;;;;;11.82;2.75;;;6.90;99.90;;;;;;5011774;28;20045;-90
2022/01/21 12:41:24;;;;;;;13.00;3.50;;;7.00;99.90;;;;;;5011569;28;20056;-91
2022/01/21 12:43:53;;;;;;;13.55;3.65;;;7.00;99.90;;;;;;4994353;28;20415;-88
2022/01/21 12:46:27;;;;;;;12.77;3.70;;;7.10;99.90;;;;;;5011378;28;20045;-90
2022/01/21 12:48:54;;;;;;;13.15;3.25;;;7.10;99.90;;;;;;5010730;28;20510;-89
2022/01/21 12:56:51;;;;;;;10.20;2.33;;;7.20;99.90;;;;;;4961127;28;20144;-88
2022/01/21 12:59:19;;;;;;;9.48;4.07;;;7.20;99.90;;;;;;5010826;28;20053;-89
2022/01/21 13:01:46;;;;;;;11.48;2.33;;;7.20;99.90;;;;;;5010559;28;20042;-90
2022/01/21 13:04:27;;;;;;;10.30;2.00;;;7.30;99.90;;;;;;5012047;28;20042;-92
2022/01/21 13:07:05;;;;;;;11.07;2.05;;;7.30;99.90;;;;;;5005707;28;20044;-93
2022/01/21 13:09:50;;;;;;;10.13;2.28;;;7.30;99.90;;;;;;5015989;28;20131;-89
2022/01/21 13:12:16;;;;;;;10.88;3.65;;;7.20;99.90;;;;;;5015272;28;20045;-91
2022/01/21 13:14:55;;;;;;;9.38;2.20;;;7.20;99.90;;;;;;5013825;28;20497;-92
2022/01/21 13:17:21;;;;;;;10.50;2.35;;;7.20;99.90;;;;;;4999285;28;20045;-91
2022/01/21 13:19:47;;;;;;;11.68;2.22;;;7.20;99.90;;;;;;5012922;28;20061;-92
2022/01/21 13:22:35;;;;;;;11.43;2.60;;;7.20;99.90;;;;;;4998392;28;20397;-92
2022/01/21 13:25:09;;;;;;;12.13;2.40;;;7.20;99.90;;;;;;4997789;28;20073;-91
2022/01/21 13:27:43;;;;;;;9.82;2.55;;;7.20;99.90;;;;;;4997515;28;20037;-91
2022/01/21 13:30:11;;;;;;;14.38;2.85;;;7.20;99.90;;;;;;5013694;28;20057;-92
2022/01/21 13:32:37;;;;;;;10.32;2.78;;;7.10;99.90;;;;;;5013492;28;20042;-90
2022/01/21 13:35:09;;;;;;;12.50;2.50;;;7.10;99.90;;;;;;5032458;28;20046;-91
2022/01/21 13:37:35;;;;;;;12.95;2.90;;;7.10;99.90;;;;;;5013783;28;20051;-92
2022/01/21 13:40:01;;;;;;;13.80;3.22;;;7.10;99.90;;;;;;5013301;28;20069;-92
2022/01/21 13:42:28;;;;;;;12.50;3.15;;;7.10;99.90;;;;;;5014637;28;20045;-90
2022/01/21 13:44:56;;;;;;;16.15;3.17;;;7.00;99.90;;;;;;4998883;28;20056;-92
2022/01/21 13:47:45;;;;;;;14.57;3.13;;;7.00;99.90;;;;;;5016176;28;20044;-92
2022/01/21 13:50:22;;;;;;;13.50;3.40;;;7.00;99.90;;;;;;5005845;28;20097;-90
2022/01/21 13:52:52;;;;;;;13.60;3.38;;;7.00;99.90;;;;;;5032090;28;20045;-93
2022/01/21 13:55:29;;;;;;;11.98;2.63;;;7.00;99.90;;;;;;5054189;28;20149;-92
2022/01/21 13:57:56;;;;;;;15.10;3.33;;;7.10;99.90;;;;;;5023823;28;20068;-93
2022/01/21 14:00:34;;;;;;;11.73;2.58;;;7.10;99.90;;;;;;5015935;28;20054;-91
2022/01/21 14:03:28;;;;;;;15.55;3.28;;;7.10;99.90;;;;;;5014140;28;20049;-90
2022/01/21 14:05:56;;;;;;;15.07;2.88;;;7.10;99.90;;;;;;4993511;28;20060;-91
2022/01/21 14:08:29;;;;;;;12.00;2.38;;;7.10;99.90;;;;;;5015291;28;20128;-93
2022/01/21 14:11:05;;;;;;;15.98;3.65;;;7.10;99.90;;;;;;4999500;28;20059;-93
2022/01/21 14:13:35;;;;;;;14.00;2.78;;;7.20;99.90;;;;;;5029869;28;20136;-91
2022/01/21 14:16:08;;;;;;;15.45;3.45;;;7.20;99.90;;;;;;5013803;28;20033;-91
2022/01/21 14:18:36;;;;;;;14.90;3.67;;;7.20;99.90;;;;;;4997519;28;20049;-92
2022/01/21 14:21:16;;;;;;;16.75;3.45;;;7.20;99.90;;;;;;4998327;28;20046;-89
2022/01/21 14:23:43;;;;;;;13.93;3.90;;;7.20;99.90;;;;;;5029488;28;20076;-92
2022/01/21 14:26:11;;;;;;;14.73;3.67;;;7.30;99.90;;;;;;5013894;28;20053;-90
2022/01/21 14:28:55;;;;;;;13.02;3.10;;;7.30;99.90;;;;;;4993911;28;20050;-92
2022/01/21 14:31:38;;;;;;;14.38;3.00;;;7.30;99.90;;;;;;4995529;28;20037;-92
2022/01/21 14:34:11;;;;;;;14.00;3.20;;;7.20;99.90;;;;;;5013413;28;20241;-89
2022/01/21 14:36:37;;;;;;;16.48;3.45;;;7.20;99.90;;;;;;5008692;28;20050;-89
2022/01/21 14:39:18;;;;;;;15.15;2.72;;;7.20;99.90;;;;;;5013122;28;20502;-88
2022/01/21 14:41:49;;;;;;;15.75;3.83;;;7.20;99.90;;;;;;5029663;28;20168;-90
2022/01/21 14:44:16;;;;;;;13.90;3.10;;;7.20;99.90;;;;;;5014612;28;20049;-93
2022/01/21 14:46:43;;;;;;;16.95;3.63;;;7.20;99.90;;;;;;5012857;28;20053;-92
2022/01/21 14:49:10;;;;;;;16.40;3.17;;;7.20;99.90;;;;;;5014577;28;20041;-88
2022/01/21 14:51:59;;;;;;;15.05;2.78;;;7.20;99.90;;;;;;5013468;28;20072;-91
2022/01/21 14:54:25;;;;;;;12.52;3.75;;;7.20;99.90;;;;;;5014471;28;20041;-93
2022/01/21 14:57:03;;;;;;;14.27;3.00;;;7.20;99.90;;;;;;5033529;28;20037;-93
2022/01/21 14:59:29;;;;;;;13.48;3.33;;;7.20;99.90;;;;;;5013452;28;20135;-92
2022/01/21 15:02:07;;;;;;;13.50;3.35;;;7.20;99.90;;;;;;5031089;28;20073;-91
2022/01/21 15:04:36;;;;;;;19.40;5.45;;;7.20;99.90;;;;;;5012658;28;20037;-92
2022/01/21 15:07:08;;;;;;;16.70;4.07;;;7.20;99.90;;;;;;5012963;28;20041;-90
2022/01/21 15:09:35;;;;;;;14.63;3.17;;;7.20;99.90;;;;;;4997437;28;20128;-90
2022/01/21 15:12:13;;;;;;;14.35;3.85;;;7.20;99.90;;;;;;4998490;28;20131;-92
2022/01/21 15:14:43;;;;;;;15.05;3.03;;;7.20;99.90;;;;;;4996798;28;20490;-90
2022/01/21 15:17:17;;;;;;;15.93;3.93;;;7.10;99.90;;;;;;4998028;28;20071;-93
2022/01/21 15:19:47;;;;;;;16.20;3.85;;;7.20;99.90;;;;;;5012057;28;20318;-93
2022/01/21 15:22:20;;;;;;;14.27;3.50;;;7.20;99.90;;;;;;5015379;28;20045;-92
2022/01/21 15:24:47;;;;;;;16.98;4.03;;;7.20;99.90;;;;;;5014208;28;20091;-93
2022/01/21 15:27:15;;;;;;;14.30;3.38;;;7.10;99.90;;;;;;5015200;28;20056;-93
2022/01/21 15:29:42;;;;;;;15.07;3.28;;;7.10;99.90;;;;;;5015525;28;20037;-93